createdAt,value
2022-11-16T00:02:14.174Z,1.95
2022-11-16T00:04:42.588Z,1.00
2022-11-16T00:07:47.894Z,1.10
2022-11-16T00:10:16.269Z,0.90
2022-11-16T00:12:44.449Z,1.17
2022-11-16T00:15:12.733Z,0.88
2022-11-16T00:17:40.786Z,1.20
2022-11-16T00:20:46.004Z,2.33
2022-11-16T00:23:14.195Z,0.88
2022-11-16T00:25:42.455Z,1.00
2022-11-16T00:28:11.252Z,1.00
2022-11-16T00:30:39.535Z,1.27
2022-11-16T00:33:09.136Z,1.20
2022-11-16T00:35:41.354Z,1.02
2022-11-16T00:38:09.723Z,1.20
2022-11-16T00:40:37.931Z,1.33
2022-11-16T00:43:25.677Z,0.88
2022-11-16T00:46:12.124Z,1.38
2022-11-16T00:48:40.359Z,1.00
2022-11-16T00:51:08.661Z,1.27
2022-11-16T00:53:55.526Z,1.00
2022-11-16T00:56:24.595Z,1.15
2022-11-16T00:58:52.776Z,0.93
2022-11-16T01:01:21.037Z,1.13
2022-11-16T01:03:52.088Z,0.93
2022-11-16T01:06:21.110Z,1.08
2022-11-16T01:09:08.072Z,0.80
2022-11-16T01:11:54.703Z,1.77
2022-11-16T01:14:22.822Z,0.93
2022-11-16T01:16:51.214Z,0.80
2022-11-16T01:19:21.255Z,1.00
2022-11-16T01:21:49.475Z,1.00
2022-11-16T01:24:17.787Z,1.40
2022-11-16T01:29:49.732Z,0.88
2022-11-16T01:32:18.697Z,0.80
2022-11-16T01:34:47.616Z,0.90
2022-11-16T01:37:28.229Z,1.00
2022-11-16T01:39:56.650Z,1.08
2022-11-16T01:42:27.724Z,1.30
2022-11-16T01:45:18.885Z,0.90
2022-11-16T01:47:47.554Z,1.10
2022-11-16T01:50:20.907Z,1.30
2022-11-16T01:53:00.357Z,1.10
2022-11-16T01:55:36.129Z,1.27
2022-11-16T01:58:23.479Z,0.90
2022-11-16T02:00:58.134Z,0.80
2022-11-16T02:03:57.981Z,1.10
2022-11-16T02:06:26.536Z,0.90
2022-11-16T02:09:49.541Z,0.82
2022-11-16T02:12:23.684Z,1.10
2022-11-16T02:15:20.419Z,1.25
2022-11-16T02:18:21.124Z,1.02
2022-11-16T02:21:31.379Z,0.85
2022-11-16T02:24:05.521Z,0.80
2022-11-16T02:29:47.859Z,1.10
2022-11-16T02:32:55.430Z,0.70
2022-11-16T02:38:40.933Z,1.10
2022-11-16T02:44:28.456Z,0.90
2022-11-16T02:47:00.387Z,0.77
2022-11-16T02:49:31.648Z,0.77
2022-11-16T02:52:00.657Z,0.98
2022-11-16T02:54:29.060Z,0.90
2022-11-16T02:57:30.272Z,1.10
2022-11-16T03:00:00.896Z,0.80
2022-11-16T03:02:58.374Z,0.90
2022-11-16T03:05:41.075Z,0.88
2022-11-16T03:08:54.820Z,1.00
2022-11-16T03:11:42.311Z,0.98
2022-11-16T03:14:15.435Z,0.85
2022-11-16T03:16:49.293Z,1.17
2022-11-16T03:19:24.103Z,0.98
2022-11-16T03:22:07.782Z,0.82
2022-11-16T03:24:39.252Z,1.00
2022-11-16T03:27:16.786Z,0.73
2022-11-16T03:30:08.548Z,0.85
2022-11-16T03:33:09.629Z,0.93
2022-11-16T03:35:49.793Z,0.73
2022-11-16T03:38:20.586Z,0.70
2022-11-16T03:40:51.285Z,0.77
2022-11-16T03:43:21.039Z,0.80
2022-11-16T03:45:49.792Z,0.70
2022-11-16T03:48:36.672Z,0.55
2022-11-16T03:51:10.744Z,0.55
2022-11-16T03:53:40.549Z,0.70
2022-11-16T03:56:10.533Z,0.50
2022-11-16T03:58:40.074Z,0.70
2022-11-16T04:01:08.302Z,0.70
2022-11-16T04:03:36.424Z,0.98
2022-11-16T04:06:23.371Z,0.88
2022-11-16T04:09:10.287Z,0.80
2022-11-16T04:12:17.639Z,0.98
2022-11-16T04:15:04.000Z,0.70
2022-11-16T04:17:52.974Z,0.93
2022-11-16T04:20:39.867Z,1.10
2022-11-16T04:23:33.878Z,0.80
2022-11-16T04:26:06.695Z,0.65
2022-11-16T04:28:36.055Z,0.60
2022-11-16T04:31:25.854Z,0.77
2022-11-16T04:34:31.915Z,0.73
2022-11-16T04:37:18.769Z,0.88
2022-11-16T04:40:05.535Z,0.85
2022-11-16T04:42:33.869Z,0.82
2022-11-16T04:45:20.671Z,0.68
2022-11-16T04:47:52.692Z,0.73
2022-11-16T04:50:23.423Z,0.80
2022-11-16T04:53:10.584Z,0.60
2022-11-16T04:55:45.781Z,1.17
2022-11-16T04:58:15.501Z,1.30
2022-11-16T05:00:43.716Z,0.70
2022-11-16T05:03:30.921Z,0.80
2022-11-16T05:05:59.134Z,0.68
2022-11-16T05:08:27.429Z,0.80
2022-11-16T05:11:14.313Z,0.77
2022-11-16T05:13:42.688Z,0.55
2022-11-16T05:16:29.673Z,0.70
2022-11-16T05:19:16.441Z,0.65
2022-11-16T05:22:22.203Z,0.65
2022-11-16T05:24:52.251Z,0.52
2022-11-16T05:27:39.480Z,0.70
2022-11-16T05:30:09.302Z,0.70
2022-11-16T05:32:37.446Z,0.70
2022-11-16T05:35:07.158Z,0.60
2022-11-16T05:37:35.321Z,0.60
2022-11-16T05:40:03.542Z,1.48
2022-11-16T05:42:41.780Z,1.63
2022-11-16T05:45:10.633Z,0.60
2022-11-16T05:47:38.762Z,0.60
2022-11-16T05:50:07.630Z,0.70
2022-11-16T05:52:40.428Z,0.63
2022-11-16T05:55:11.762Z,0.95
2022-11-16T05:57:45.109Z,1.30
2022-11-16T06:00:13.907Z,0.90
2022-11-16T06:02:48.920Z,0.60
2022-11-16T06:05:24.777Z,0.93
2022-11-16T06:07:54.049Z,0.98
2022-11-16T06:10:22.602Z,0.50
2022-11-16T06:12:52.754Z,0.80
2022-11-16T06:15:21.004Z,0.60
2022-11-16T06:17:49.077Z,0.68
2022-11-16T06:20:17.574Z,0.80
2022-11-16T06:25:57.196Z,0.60
2022-11-16T06:28:28.067Z,0.70
2022-11-16T06:30:56.662Z,0.70
2022-11-16T06:33:29.663Z,0.63
2022-11-16T06:36:02.025Z,0.60
2022-11-16T06:38:30.175Z,1.20
2022-11-16T06:40:59.359Z,0.80
2022-11-16T06:43:29.489Z,0.77
2022-11-16T06:45:58.724Z,0.73
2022-11-16T06:48:26.968Z,1.00
2022-11-16T06:50:55.485Z,0.50
2022-11-16T06:53:28.929Z,0.63
2022-11-16T06:56:12.788Z,0.60
2022-11-16T06:58:45.274Z,1.00
2022-11-16T07:01:15.486Z,0.70
2022-11-16T07:03:45.687Z,1.02
2022-11-16T07:06:15.085Z,0.50
2022-11-16T07:08:45.921Z,0.50
2022-11-16T07:13:45.250Z,0.70
2022-11-16T07:16:14.327Z,1.00
2022-11-16T07:18:49.483Z,0.70
2022-11-16T07:21:17.698Z,0.70
2022-11-16T07:23:46.707Z,0.68
2022-11-16T07:26:33.897Z,0.85
2022-11-16T07:29:12.737Z,0.73
2022-11-16T07:31:46.230Z,0.52
2022-11-16T07:34:31.137Z,0.75
2022-11-16T07:37:12.355Z,1.02
2022-11-16T07:39:59.689Z,0.80
2022-11-16T07:42:27.779Z,0.90
2022-11-16T07:45:08.614Z,0.65
2022-11-16T07:47:41.141Z,0.98
2022-11-16T07:50:14.556Z,0.85
2022-11-16T07:52:46.683Z,0.68
2022-11-16T07:55:21.605Z,0.70
2022-11-16T07:57:53.640Z,0.70
2022-11-16T08:00:40.048Z,1.27
2022-11-16T08:03:19.240Z,1.00
2022-11-16T08:05:59.725Z,0.80
2022-11-16T08:08:28.023Z,0.93
2022-11-16T08:11:03.140Z,1.30
2022-11-16T08:13:34.595Z,1.00
2022-11-16T08:16:23.088Z,1.17
2022-11-16T08:19:02.734Z,0.75
2022-11-16T08:21:30.836Z,0.82
2022-11-16T08:23:59.261Z,1.10
2022-11-16T08:26:28.144Z,0.70
2022-11-16T08:29:02.131Z,0.90
2022-11-16T08:31:34.676Z,0.90
2022-11-16T08:34:09.517Z,1.40
2022-11-16T08:36:40.945Z,1.13
2022-11-16T08:39:09.701Z,1.13
2022-11-16T08:41:57.306Z,1.35
2022-11-16T08:44:25.374Z,1.27
2022-11-16T08:46:55.751Z,1.20
2022-11-16T08:49:34.019Z,1.20
2022-11-16T08:52:01.976Z,1.70
2022-11-16T08:54:31.813Z,1.10
2022-11-16T08:57:00.204Z,1.15
2022-11-16T08:59:32.070Z,1.33
2022-11-16T09:02:06.910Z,1.85
2022-11-16T09:04:37.258Z,1.98
2022-11-16T09:07:05.505Z,1.65
2022-11-16T09:09:33.545Z,1.60
2022-11-16T09:12:01.618Z,1.88
2022-11-16T09:14:30.846Z,2.35
2022-11-16T09:16:58.879Z,1.60
2022-11-16T09:19:26.944Z,2.28
2022-11-16T09:22:13.505Z,1.23
2022-11-16T09:24:41.597Z,1.48
2022-11-16T09:27:09.697Z,1.50
2022-11-16T09:29:37.725Z,1.40
2022-11-16T09:32:05.904Z,1.58
2022-11-16T09:34:37.187Z,2.17
2022-11-16T09:37:05.166Z,2.42
2022-11-16T09:39:34.673Z,1.90
2022-11-16T09:42:50.089Z,3.67
2022-11-16T09:46:02.256Z,2.28
2022-11-16T09:51:07.665Z,1.70
2022-11-16T09:53:55.458Z,1.77
2022-11-16T09:56:28.838Z,1.52
2022-11-16T09:59:12.208Z,2.25
2022-11-16T10:01:57.297Z,1.98
2022-11-16T10:04:29.734Z,2.33
2022-11-16T10:07:06.919Z,2.33
2022-11-16T10:09:36.362Z,2.10
2022-11-16T10:12:04.513Z,2.00
2022-11-16T10:14:47.326Z,2.58
2022-11-16T10:17:27.862Z,2.10
2022-11-16T10:20:52.076Z,2.35
2022-11-16T10:24:09.967Z,2.10
2022-11-16T10:27:07.542Z,3.28
2022-11-16T10:29:43.938Z,2.15
2022-11-16T10:32:22.248Z,3.00
2022-11-16T10:35:12.041Z,3.20
2022-11-16T10:37:48.037Z,3.92
2022-11-16T10:40:18.334Z,5.20
2022-11-16T10:42:55.196Z,6.75
2022-11-16T10:45:33.278Z,7.30
2022-11-16T10:48:11.395Z,8.07
2022-11-16T10:50:49.001Z,6.32
2022-11-16T10:53:28.622Z,3.92
2022-11-16T10:56:39.937Z,4.25
2022-11-16T10:59:12.938Z,3.88
2022-11-16T11:01:43.976Z,2.63
2022-11-16T11:04:32.927Z,2.15
2022-11-16T11:07:21.031Z,2.40
2022-11-16T11:09:55.743Z,2.30
2022-11-16T11:12:40.915Z,2.80
2022-11-16T11:15:12.118Z,2.75
2022-11-16T11:17:45.386Z,2.50
2022-11-16T11:20:16.570Z,2.33
2022-11-16T11:22:59.852Z,2.70
2022-11-16T11:25:52.120Z,2.53
2022-11-16T11:28:31.912Z,2.70
2022-11-16T11:31:03.114Z,2.80
2022-11-16T11:33:35.320Z,2.92
2022-11-16T11:36:19.060Z,2.78
2022-11-16T11:39:09.399Z,2.90
2022-11-16T11:41:41.550Z,3.15
2022-11-16T11:44:17.056Z,2.90
2022-11-16T11:50:53.251Z,2.55
2022-11-16T11:53:42.917Z,2.13
2022-11-16T11:56:12.656Z,3.15
2022-11-16T11:58:42.076Z,2.85
2022-11-16T12:01:25.250Z,2.47
2022-11-16T12:04:08.864Z,2.10
2022-11-16T12:06:43.787Z,2.58
2022-11-16T12:09:30.223Z,2.28
2022-11-16T12:12:23.948Z,2.65
2022-11-16T12:15:17.674Z,2.15
2022-11-16T12:18:24.609Z,2.15
2022-11-16T12:21:33.796Z,2.13
2022-11-16T12:24:17.255Z,2.20
2022-11-16T12:27:00.406Z,2.25
2022-11-16T12:29:31.248Z,2.40
2022-11-16T12:32:08.043Z,2.40
2022-11-16T12:37:49.605Z,2.75
2022-11-16T12:40:42.025Z,2.38
2022-11-16T12:43:20.901Z,2.38
2022-11-16T12:46:27.610Z,2.63
2022-11-16T12:49:49.070Z,2.13
2022-11-16T12:55:25.805Z,2.15
2022-11-16T12:58:29.295Z,2.10
2022-11-16T13:01:18.979Z,2.13
2022-11-16T13:03:57.655Z,2.53
2022-11-16T13:06:33.201Z,3.08
2022-11-16T13:09:11.440Z,3.50
2022-11-16T13:11:44.356Z,2.42
2022-11-16T13:14:17.788Z,2.22
2022-11-16T13:16:47.721Z,2.72
2022-11-16T13:19:18.296Z,2.80
2022-11-16T13:22:16.838Z,2.33
2022-11-16T13:24:58.861Z,2.75
2022-11-16T13:27:48.338Z,3.00
2022-11-16T13:30:23.540Z,2.90
2022-11-16T13:33:14.004Z,3.40
2022-11-16T13:35:42.148Z,3.67
2022-11-16T13:38:15.220Z,2.30
2022-11-16T13:40:43.314Z,3.10
2022-11-16T13:43:11.212Z,2.90
2022-11-16T13:46:01.162Z,3.13
2022-11-16T13:48:38.624Z,2.88
2022-11-16T13:51:09.109Z,2.95
2022-11-16T13:56:50.181Z,1.98
2022-11-16T13:59:26.374Z,2.53
2022-11-16T14:02:34.462Z,1.90
2022-11-16T14:05:07.068Z,2.28
2022-11-16T14:07:36.758Z,1.85
2022-11-16T14:10:06.259Z,2.42
2022-11-16T14:12:54.660Z,2.20
2022-11-16T14:15:28.895Z,2.65
2022-11-16T14:18:08.050Z,2.83
2022-11-16T14:21:11.841Z,2.50
2022-11-16T14:23:46.904Z,2.50
2022-11-16T14:26:39.396Z,2.90
2022-11-16T14:29:44.854Z,2.05
2022-11-16T14:32:29.142Z,2.20
2022-11-16T14:34:59.601Z,2.17
2022-11-16T14:37:30.554Z,2.72
2022-11-16T14:40:15.277Z,2.15
2022-11-16T14:43:20.215Z,2.30
2022-11-16T14:45:57.189Z,2.60
2022-11-16T14:48:26.537Z,2.10
2022-11-16T14:51:00.467Z,2.10
2022-11-16T14:53:29.621Z,1.83
2022-11-16T14:56:12.913Z,2.03
2022-11-16T15:01:39.108Z,1.88
2022-11-16T15:04:12.209Z,2.05
2022-11-16T15:07:17.123Z,3.20
2022-11-16T15:09:49.530Z,1.60
2022-11-16T15:12:39.279Z,1.95
2022-11-16T15:15:14.997Z,2.08
2022-11-16T15:17:52.679Z,2.22
2022-11-16T15:20:25.516Z,2.35
2022-11-16T15:22:55.979Z,1.58
2022-11-16T15:25:28.723Z,2.50
2022-11-16T15:27:58.612Z,2.10
2022-11-16T15:30:29.684Z,1.73
2022-11-16T15:32:58.082Z,1.92
2022-11-16T15:35:31.471Z,1.65
2022-11-16T15:38:12.504Z,1.83
2022-11-16T15:40:42.528Z,1.70
2022-11-16T15:43:11.557Z,2.30
2022-11-16T15:45:39.751Z,5.78
2022-11-16T15:48:08.171Z,7.25
2022-11-16T15:50:36.076Z,1.98
2022-11-16T15:53:04.139Z,2.92
2022-11-16T15:55:34.432Z,1.63
2022-11-16T15:58:06.575Z,2.38
2022-11-16T16:03:27.753Z,2.05
2022-11-16T16:05:56.247Z,2.45
2022-11-16T16:08:27.952Z,2.28
2022-11-16T16:11:27.030Z,2.30
2022-11-16T16:14:02.878Z,2.55
2022-11-16T16:16:57.679Z,5.18
2022-11-16T16:19:43.859Z,4.80
2022-11-16T16:22:37.736Z,5.50
2022-11-16T16:25:07.747Z,1.90
2022-11-16T16:27:41.877Z,1.90
2022-11-16T16:30:14.807Z,1.55
2022-11-16T16:32:42.788Z,8.55
2022-11-16T16:35:20.482Z,3.05
2022-11-16T16:37:50.771Z,4.07
2022-11-16T16:40:19.268Z,2.55
2022-11-16T16:42:49.813Z,2.13
2022-11-16T16:45:21.407Z,1.70
2022-11-16T16:47:49.530Z,2.05
2022-11-16T16:50:17.545Z,1.98
2022-11-16T16:52:45.913Z,2.10
2022-11-16T16:55:14.138Z,1.77
2022-11-16T16:57:42.200Z,2.60
2022-11-16T17:00:11.889Z,2.38
2022-11-16T17:02:40.000Z,2.25
2022-11-16T17:05:08.358Z,3.35
2022-11-16T17:07:36.443Z,4.68
2022-11-16T17:10:04.941Z,2.20
2022-11-16T17:12:32.986Z,2.05
2022-11-16T17:15:01.158Z,1.80
2022-11-16T17:17:29.150Z,2.67
2022-11-16T17:19:57.157Z,1.90
2022-11-16T17:22:25.175Z,2.60
2022-11-16T17:24:53.114Z,3.15
2022-11-16T17:27:21.138Z,2.30
2022-11-16T17:29:49.141Z,2.30
2022-11-16T17:32:17.206Z,2.10
2022-11-16T17:34:45.182Z,1.75
2022-11-16T17:37:14.279Z,2.15
2022-11-16T17:39:42.258Z,1.55
2022-11-16T17:42:10.364Z,1.27
2022-11-16T17:44:38.398Z,1.30
2022-11-16T17:47:07.658Z,1.40
2022-11-16T17:49:35.590Z,1.92
2022-11-16T17:52:05.283Z,1.70
2022-11-16T17:54:33.301Z,3.03
2022-11-16T17:57:01.477Z,1.88
2022-11-16T17:59:30.127Z,1.98
2022-11-16T18:01:58.301Z,1.85
2022-11-16T18:04:26.348Z,1.52
2022-11-16T18:06:54.532Z,1.98
2022-11-16T18:09:22.541Z,2.13
2022-11-16T18:11:50.529Z,2.40
2022-11-16T18:14:18.572Z,1.73
2022-11-16T18:16:48.117Z,1.60
2022-11-16T18:19:34.773Z,1.73
2022-11-16T18:22:02.727Z,1.80
2022-11-16T18:24:30.953Z,2.00
2022-11-16T18:27:17.500Z,1.80
2022-11-16T18:29:45.499Z,1.70
2022-11-16T18:32:13.493Z,1.40
2022-11-16T18:34:41.519Z,1.23
2022-11-16T18:37:09.537Z,1.20
2022-11-16T18:39:37.502Z,1.80
2022-11-16T18:42:05.540Z,1.52
2022-11-16T18:44:33.670Z,1.60
2022-11-16T18:47:03.323Z,1.60
2022-11-16T18:49:31.351Z,1.58
2022-11-16T18:51:59.349Z,1.20
2022-11-16T18:54:27.252Z,1.30
2022-11-16T18:56:56.059Z,1.65
2022-11-16T18:59:25.946Z,1.23
2022-11-16T19:01:53.977Z,1.27
2022-11-16T19:04:21.978Z,1.15
2022-11-16T19:07:08.904Z,1.42
2022-11-16T19:09:36.951Z,1.00
2022-11-16T19:12:05.104Z,2.22
2022-11-16T19:14:33.177Z,1.13
2022-11-16T19:17:01.219Z,1.02
2022-11-16T19:19:47.448Z,1.10
2022-11-16T19:22:15.553Z,1.08
2022-11-16T19:24:43.539Z,1.10
2022-11-16T19:27:12.659Z,1.10
2022-11-16T19:29:40.696Z,1.05
2022-11-16T19:32:08.800Z,1.20
2022-11-16T19:34:36.778Z,1.50
2022-11-16T19:37:04.890Z,1.02
2022-11-16T19:39:32.838Z,1.42
2022-11-16T19:42:00.861Z,1.75
2022-11-16T19:44:28.837Z,1.00
2022-11-16T19:46:57.587Z,0.77
2022-11-16T19:49:26.283Z,1.15
2022-11-16T19:52:12.961Z,1.15
2022-11-16T19:54:40.960Z,0.98
2022-11-16T19:57:08.906Z,1.15
2022-11-16T19:59:36.933Z,0.85
2022-11-16T20:02:05.072Z,1.10
2022-11-16T20:04:34.625Z,1.33
2022-11-16T20:07:02.627Z,1.02
2022-11-16T20:09:30.738Z,1.00
2022-11-16T20:11:59.733Z,1.27
2022-11-16T20:14:27.721Z,1.27
2022-11-16T20:16:55.670Z,0.90
2022-11-16T20:19:23.687Z,1.08
2022-11-16T20:21:53.438Z,1.10
2022-11-16T20:24:21.602Z,1.15
2022-11-16T20:29:34.932Z,1.00
2022-11-16T20:32:02.940Z,1.10
2022-11-16T20:34:31.304Z,0.88
2022-11-16T20:36:59.294Z,1.00
2022-11-16T20:39:27.304Z,1.60
2022-11-16T20:41:55.385Z,1.25
2022-11-16T20:44:41.817Z,1.13
2022-11-16T20:47:09.774Z,0.95
2022-11-16T20:49:37.805Z,1.08
2022-11-16T20:52:05.964Z,1.40
2022-11-16T20:54:34.163Z,1.15
2022-11-16T20:57:02.161Z,0.82
2022-11-16T20:59:30.392Z,1.63
2022-11-16T21:01:58.577Z,1.02
2022-11-16T21:04:27.478Z,0.90
2022-11-16T21:06:55.598Z,1.05
2022-11-16T21:09:24.076Z,0.88
2022-11-16T21:12:10.725Z,1.48
2022-11-16T21:14:38.821Z,0.80
2022-11-16T21:17:06.797Z,1.13
2022-11-16T21:19:34.881Z,0.90
2022-11-16T21:22:02.883Z,0.90
2022-11-16T21:24:32.464Z,0.93
2022-11-16T21:27:00.683Z,1.17
2022-11-16T21:29:28.923Z,1.02
2022-11-16T21:31:56.935Z,1.20
2022-11-16T21:34:28.059Z,1.23
2022-11-16T21:36:56.130Z,1.20
2022-11-16T21:39:24.142Z,1.50
2022-11-16T21:41:52.080Z,1.83
2022-11-16T21:44:20.065Z,1.45
2022-11-16T21:46:48.155Z,0.98
2022-11-16T21:49:16.130Z,1.23
2022-11-16T21:51:44.094Z,1.27
2022-11-16T21:54:12.149Z,0.85
2022-11-16T21:56:40.115Z,0.77
2022-11-16T21:59:08.106Z,1.60
2022-11-16T22:01:55.937Z,1.42
2022-11-16T22:04:42.798Z,0.98
2022-11-16T22:07:33.059Z,1.02
2022-11-16T22:10:02.000Z,1.05
2022-11-16T22:12:30.469Z,1.13
2022-11-16T22:17:44.814Z,1.27
2022-11-16T22:22:59.065Z,1.20
2022-11-16T22:25:27.286Z,1.10
2022-11-16T22:31:03.077Z,1.30
2022-11-16T22:33:31.543Z,1.02
2022-11-16T22:36:00.011Z,1.20
2022-11-16T22:38:28.474Z,1.40
2022-11-16T22:40:57.894Z,1.73
2022-11-16T22:43:28.822Z,1.05
2022-11-16T22:46:01.755Z,0.95
2022-11-16T22:48:35.671Z,1.00
2022-11-16T22:51:49.070Z,0.75
2022-11-16T22:54:17.205Z,1.55
2022-11-16T22:56:45.531Z,0.93
2022-11-16T22:59:13.797Z,0.98
2022-11-16T23:01:42.065Z,1.10
2022-11-16T23:04:10.291Z,1.10
2022-11-16T23:06:38.599Z,1.50
2022-11-16T23:09:06.724Z,1.10
2022-11-16T23:12:12.080Z,1.00
2022-11-16T23:14:58.744Z,1.25
2022-11-16T23:17:46.296Z,1.10
2022-11-16T23:20:32.617Z,1.10
2022-11-16T23:23:19.218Z,1.08
2022-11-16T23:26:05.913Z,0.90
2022-11-16T23:28:34.826Z,1.48
2022-11-16T23:31:02.965Z,1.00
2022-11-16T23:33:46.102Z,0.95
2022-11-16T23:36:14.662Z,0.88
2022-11-16T23:38:42.709Z,1.17
2022-11-16T23:41:29.472Z,1.20
2022-11-16T23:44:00.738Z,1.55
2022-11-16T23:46:47.323Z,1.20
2022-11-16T23:49:15.535Z,1.48
2022-11-16T23:51:43.590Z,1.10
2022-11-16T23:54:11.775Z,1.15
2022-11-16T23:56:39.955Z,1.25
2022-11-16T23:59:08.052Z,1.25
